Flight Track Log - Related Links

Times and Time Zones

All times are in EDT time to prevent confusion due to time zone crossing. See the C-GRJR flight status page for this flight to view local times or setup timezone preferences in your user account.


Time Position Orientation Groundspeed Altitude Reporting Facility
EDT Latitude Longitude Course Direction KTS MPH feet Rate Location/Type
Mon 03:03:26 PM 44.3667 -80.2000 193° South 180 207 6,000  Level Toronto Center
Mon 03:04:26 PM 44.3167 -80.2167 193° South 190 219 7,900 1,950 Climbing Toronto Center
Mon 03:05:26 PM 44.2667 -80.2167 180° South 210 242 9,900 1,900 Climbing Toronto Center
Mon 03:06:26 PM 44.2000 -80.2333 190° South 220 253 11,700 1,950 Climbing Toronto Center
Mon 03:07:26 PM 44.1333 -80.2333 180° South 230 265 13,800 1,650 Climbing Toronto Center
Mon 03:08:26 PM 44.0667 -80.2667 200° South 240 276 15,000 600 Climbing Toronto Center
Mon 03:09:26 PM 43.9833 -80.2667 180° South 290 334 15,000  Level Toronto Center
Mon 03:10:26 PM 43.9000 -80.2833 188° South 310 357 15,000  Level Toronto Center
Mon 03:11:26 PM 43.8167 -80.3000 188° South 320 368 15,000 -400 Level Toronto Center
Mon 03:12:26 PM 43.7333 -80.3333 196° South 330 380 14,200 -1,400 Descending Toronto Center
Mon 03:13:26 PM 43.6333 -80.3167 173° South 310 357 12,200 -1,600 Descending Toronto Center
Mon 03:14:26 PM 43.5667 -80.3500 200° South 290 334 11,000 -550 Descending Toronto Center
Mon 03:15:26 PM 43.4833 -80.3500 180° South 290 334 11,100 50 Climbing Toronto Center
Mon 03:16:26 PM 43.4000 -80.3167 164° South 310 357 11,100  Level Toronto Center
Mon 03:17:26 PM 43.3333 -80.2500 144° Southeast 310 357 11,100  Level Toronto Center
Mon 03:18:26 PM 43.3000 -80.1333 111° Southeast 310 357 11,100  Level Toronto Center
Mon 03:19:26 PM 43.3000 -80.0167 90° East 310 357 11,100 -150 Level Toronto Center
Mon 03:20:26 PM 43.2833 -79.9000 101° East 310 357 10,800 -550 Descending Toronto Center
Mon 03:21:26 PM 43.2667 -79.8000 103° East 310 357 10,000 -950 Descending Toronto Center
Mon 03:22:26 PM 43.2333 -79.6833 111° Southeast 290 334 8,900 -1,150 Descending Toronto Center
Mon 03:23:26 PM 43.2167 -79.5833 103° East 290 334 7,700 -1,500 Descending Toronto Center
Mon 03:24:26 PM 43.1833 -79.4667 111° Southeast 290 334 5,900 -1,700 Descending Toronto Center
Mon 03:25:26 PM 43.1667 -79.3667 103° East 280 322 4,300 -1,700 Descending Toronto Center
Mon 03:26:26 PM 43.1500 -79.2667 103° East 270 311 2,500 -1,450 Descending Toronto Center
Mon 03:27:26 PM 43.1500 -79.2000 90° East 220 253 1,400 -1,000 Descending Toronto Center
Mon 03:28:26 PM 43.1833 -79.1500 48° Northeast 150 173 500 -900 Descending Toronto Center
Mon 03:30:00 PM 43.1833 -79.1667 270° West  Level FlightAware Approximate

Login

Don't have an account? Register now (free) for customized features, flight alerts, and more!